Time;durP1;ratioP1;P1;durP2;ratioP2;P2;SDS_P1;SDS_P2;PMS_P1;PMS_P2;Temp;Humidity;BMP_temperature;BMP_pressure;BME280_temperature;BME280_humidity;BME280_pressure;Samples;Min_cycle;Max_cycle;Signal;HPM_P1;HPM_P2
2023/03/30 00:00:17;;;;;;;;;;;13.20;81.80;;;;;;5136844;28;19924;-71
2023/03/30 00:02:43;;;;;;;;;;;13.10;81.60;;;;;;5136181;28;19916;-70
2023/03/30 00:05:09;;;;;;;;;;;13.10;81.50;;;;;;5135985;28;20361;-71
2023/03/30 00:07:37;;;;;;;;;;;13.20;81.60;;;;;;5136178;28;19965;-71
2023/03/30 00:10:03;;;;;;;;;;;13.20;81.50;;;;;;5135964;28;19929;-71
2023/03/30 00:12:29;;;;;;;;;;;13.10;81.40;;;;;;5135900;28;20006;-71
2023/03/30 00:14:55;;;;;;;;;;;13.20;81.30;;;;;;5135915;28;19964;-71
2023/03/30 00:17:21;;;;;;;;;;;13.20;81.30;;;;;;5135912;28;20237;-71
2023/03/30 00:19:47;;;;;;;;;;;13.20;81.20;;;;;;5117470;28;20360;-71
2023/03/30 00:22:12;;;;;;;;;;;13.20;81.10;;;;;;5135920;28;20261;-70
2023/03/30 00:24:38;;;;;;;;;;;13.20;81.10;;;;;;5117378;28;20017;-71
2023/03/30 00:27:03;;;;;;;;;;;13.30;81.10;;;;;;5136014;28;20011;-70
2023/03/30 00:29:29;;;;;;;;;;;13.30;80.90;;;;;;5135794;28;19915;-71
2023/03/30 00:31:55;;;;;;;;;;;13.30;81.00;;;;;;5135720;28;19916;-71
2023/03/30 00:34:20;;;;;;;;;;;13.30;81.10;;;;;;5135625;28;19922;-72
2023/03/30 00:36:47;;;;;;;;;;;13.20;81.10;;;;;;5135623;28;20372;-70
2023/03/30 00:39:13;;;;;;;;;;;13.30;81.00;;;;;;5117522;28;20062;-70
2023/03/30 00:41:39;;;;;;;;;;;13.30;80.90;;;;;;5135506;28;19920;-70
2023/03/30 00:44:06;;;;;;;;;;;13.30;80.80;;;;;;5115913;28;19926;-71
2023/03/30 00:46:32;;;;;;;;;;;13.30;80.80;;;;;;5115464;28;19961;-71
2023/03/30 00:49:02;;;;;;;;;;;13.40;81.00;;;;;;5135405;28;19915;-71
2023/03/30 00:51:28;;;;;;;;;;;13.30;80.90;;;;;;5135242;28;19922;-71
2023/03/30 00:53:56;;;;;;;;;;;13.30;80.90;;;;;;5135262;28;20005;-71
2023/03/30 00:56:25;;;;;;;;;;;13.30;80.90;;;;;;5115535;28;20285;-71
2023/03/30 00:58:51;;;;;;;;;;;13.30;80.90;;;;;;5135259;28;19911;-71
2023/03/30 01:01:24;;;;;;;;;;;13.30;80.80;;;;;;5117364;28;19922;-71
2023/03/30 01:03:50;;;;;;;;;;;13.20;80.70;;;;;;5135004;27;20288;-70
2023/03/30 01:06:16;;;;;;;;;;;13.30;80.80;;;;;;5135290;28;19915;-70
2023/03/30 01:08:43;;;;;;;;;;;13.30;80.80;;;;;;5134972;28;19915;-71
2023/03/30 01:11:08;;;;;;;;;;;13.30;80.80;;;;;;5135147;28;20382;-72
2023/03/30 01:13:37;;;;;;;;;;;13.20;80.70;;;;;;5134975;28;19921;-71
2023/03/30 01:16:08;;;;;;;;;;;13.30;80.70;;;;;;5116168;28;19915;-70
2023/03/30 01:18:39;;;;;;;;;;;13.20;80.80;;;;;;5099360;28;19915;-70
2023/03/30 01:21:20;;;;;;;;;;;13.20;80.90;;;;;;5116295;28;19960;-71
2023/03/30 01:24:02;;;;;;;;;;;13.20;81.00;;;;;;5132817;28;19925;-71
2023/03/30 01:26:38;;;;;;;;;;;13.20;80.90;;;;;;5134767;28;19916;-71
2023/03/30 01:29:14;;;;;;;;;;;13.30;81.00;;;;;;5116273;28;20369;-71
2023/03/30 01:31:50;;;;;;;;;;;13.30;80.90;;;;;;5134756;28;20000;-71
2023/03/30 01:34:28;;;;;;;;;;;13.20;80.90;;;;;;5134643;28;20365;-70
2023/03/30 01:37:02;;;;;;;;;;;13.20;80.90;;;;;;5134710;28;19915;-70
2023/03/30 01:39:40;;;;;;;;;;;13.30;80.90;;;;;;5114599;28;19919;-71
2023/03/30 01:42:13;;;;;;;;;;;13.30;80.80;;;;;;5134576;28;19919;-71
2023/03/30 01:44:43;;;;;;;;;;;13.30;80.70;;;;;;5115580;28;19930;-70
2023/03/30 01:47:16;;;;;;;;;;;13.30;80.60;;;;;;5115392;28;20337;-70
2023/03/30 01:50:00;;;;;;;;;;;13.30;80.60;;;;;;5134651;28;19964;-71
2023/03/30 01:52:29;;;;;;;;;;;13.30;80.50;;;;;;5134360;28;19923;-71
2023/03/30 01:54:59;;;;;;;;;;;13.30;80.50;;;;;;5115645;28;20373;-71
2023/03/30 01:57:30;;;;;;;;;;;13.30;80.50;;;;;;5134330;28;20407;-71
2023/03/30 01:59:58;;;;;;;;;;;13.30;80.40;;;;;;5134436;28;19926;-70
2023/03/30 02:02:26;;;;;;;;;;;13.40;80.50;;;;;;5134306;28;19916;-71
2023/03/30 02:04:52;;;;;;;;;;;13.40;80.40;;;;;;5134234;28;19920;-71
2023/03/30 02:07:21;;;;;;;;;;;13.40;80.40;;;;;;5134252;28;19916;-71
2023/03/30 02:09:48;;;;;;;;;;;13.40;80.30;;;;;;5134259;28;19996;-71
2023/03/30 02:12:13;;;;;;;;;;;13.50;80.40;;;;;;5115080;28;19959;-70
2023/03/30 02:14:40;;;;;;;;;;;13.40;80.30;;;;;;5134108;28;19965;-71
2023/03/30 02:17:10;;;;;;;;;;;13.40;80.40;;;;;;5133453;27;19915;-71
2023/03/30 02:19:36;;;;;;;;;;;13.40;80.40;;;;;;5133836;28;20403;-70
2023/03/30 02:22:02;;;;;;;;;;;13.50;80.40;;;;;;5133865;28;20766;-70
2023/03/30 02:24:30;;;;;;;;;;;13.40;80.40;;;;;;5133882;28;19963;-71
2023/03/30 02:26:57;;;;;;;;;;;13.30;80.40;;;;;;5134002;28;19926;-71
2023/03/30 02:29:23;;;;;;;;;;;13.30;80.30;;;;;;5134065;28;19923;-71
2023/03/30 02:31:52;;;;;;;;;;;13.50;80.20;;;;;;5133765;28;20288;-71
2023/03/30 02:34:24;;;;;;;;;;;13.40;80.20;;;;;;5133740;28;19915;-70
2023/03/30 02:37:04;;;;;;;;;;;13.40;80.00;;;;;;5133719;28;19919;-72
2023/03/30 02:39:40;;;;;;;;;;;13.40;80.10;;;;;;5133568;28;20395;-70
2023/03/30 02:42:25;;;;;;;;;;;13.30;80.00;;;;;;5114617;28;20401;-70
2023/03/30 02:44:58;;;;;;;;;;;13.30;80.10;;;;;;5114459;28;19919;-71
2023/03/30 02:47:35;;;;;;;;;;;13.30;80.10;;;;;;5114980;28;19916;-71
2023/03/30 02:50:04;;;;;;;;;;;13.30;80.20;;;;;;5133564;28;20016;-71
2023/03/30 02:52:51;;;;;;;;;;;13.30;80.10;;;;;;5133708;28;19915;-71
2023/03/30 02:55:28;;;;;;;;;;;13.30;80.10;;;;;;5130288;28;19915;-71
2023/03/30 02:58:01;;;;;;;;;;;13.40;80.10;;;;;;5132142;28;20364;-70
2023/03/30 03:00:31;;;;;;;;;;;13.30;80.30;;;;;;5133879;28;19922;-71
2023/03/30 03:02:59;;;;;;;;;;;13.30;80.40;;;;;;5133362;28;20396;-71
2023/03/30 03:05:25;;;;;;;;;;;13.40;80.40;;;;;;5133209;28;19919;-71
2023/03/30 03:07:50;;;;;;;;;;;13.20;80.30;;;;;;5133360;28;19971;-71
2023/03/30 03:10:16;;;;;;;;;;;13.20;80.30;;;;;;5131313;28;19915;-71
2023/03/30 03:12:43;;;;;;;;;;;13.20;80.30;;;;;;5114309;28;19923;-71
2023/03/30 03:15:10;;;;;;;;;;;13.20;80.40;;;;;;5133273;28;19915;-71
2023/03/30 03:17:35;;;;;;;;;;;13.20;80.40;;;;;;5133245;28;20007;-71
2023/03/30 03:20:02;;;;;;;;;;;13.20;80.50;;;;;;5133245;28;20018;-71
2023/03/30 03:22:28;;;;;;;;;;;13.10;80.50;;;;;;5133181;28;19964;-71
2023/03/30 03:24:54;;;;;;;;;;;13.10;80.60;;;;;;5133087;28;19919;-71
2023/03/30 03:27:19;;;;;;;;;;;13.20;80.80;;;;;;5132949;27;19954;-71
2023/03/30 03:29:46;;;;;;;;;;;13.10;80.80;;;;;;5136369;28;19919;-71
2023/03/30 03:32:11;;;;;;;;;;;13.10;80.80;;;;;;5136614;28;19922;-71
2023/03/30 03:34:38;;;;;;;;;;;13.10;80.80;;;;;;5136515;28;19916;-71
2023/03/30 03:37:04;;;;;;;;;;;13.00;80.70;;;;;;5136517;28;19922;-71
2023/03/30 03:39:30;;;;;;;;;;;13.00;80.80;;;;;;5116965;28;20351;-71
2023/03/30 03:41:55;;;;;;;;;;;13.00;80.80;;;;;;5136366;28;19926;-71
2023/03/30 03:44:21;;;;;;;;;;;13.00;80.80;;;;;;5136260;28;19919;-71
2023/03/30 03:46:47;;;;;;;;;;;12.90;80.80;;;;;;5136342;28;20288;-71
2023/03/30 03:49:12;;;;;;;;;;;12.90;80.80;;;;;;5136503;28;19950;-71
2023/03/30 03:51:38;;;;;;;;;;;12.90;80.80;;;;;;5136371;28;19968;-71
2023/03/30 03:54:04;;;;;;;;;;;12.90;80.70;;;;;;5136501;28;19922;-71
2023/03/30 03:56:29;;;;;;;;;;;13.00;80.80;;;;;;5137104;28;20333;-71
2023/03/30 03:58:55;;;;;;;;;;;13.00;80.80;;;;;;5136887;28;20312;-70
2023/03/30 04:01:21;;;;;;;;;;;13.00;80.90;;;;;;5100269;28;20388;-71
2023/03/30 04:03:46;;;;;;;;;;;13.00;80.70;;;;;;5136430;28;19954;-71
2023/03/30 04:06:12;;;;;;;;;;;13.10;80.70;;;;;;5115959;28;19922;-71
2023/03/30 04:08:37;;;;;;;;;;;13.10;80.40;;;;;;5136326;28;19918;-70
2023/03/30 04:11:06;;;;;;;;;;;13.20;80.40;;;;;;5116557;28;19923;-71
2023/03/30 04:13:32;;;;;;;;;;;13.20;80.30;;;;;;5136905;28;20348;-70
2023/03/30 04:15:58;;;;;;;;;;;13.30;80.20;;;;;;5136370;28;19915;-71
2023/03/30 04:18:23;;;;;;;;;;;13.30;80.20;;;;;;5136060;28;19911;-71
2023/03/30 04:20:49;;;;;;;;;;;13.30;80.20;;;;;;5136217;28;19916;-71
2023/03/30 04:23:20;;;;;;;;;;;13.30;80.20;;;;;;5135971;28;19916;-71
2023/03/30 04:25:46;;;;;;;;;;;13.20;80.20;;;;;;5117786;28;19922;-71
2023/03/30 04:28:11;;;;;;;;;;;13.20;80.30;;;;;;5136109;28;19915;-70
2023/03/30 04:30:37;;;;;;;;;;;13.30;80.40;;;;;;5136196;28;19951;-71
2023/03/30 04:33:03;;;;;;;;;;;13.20;80.40;;;;;;5136165;28;20311;-71
2023/03/30 04:35:29;;;;;;;;;;;13.20;80.50;;;;;;5136359;28;20002;-72
2023/03/30 04:37:56;;;;;;;;;;;13.20;80.60;;;;;;5135852;28;20009;-71
2023/03/30 04:40:22;;;;;;;;;;;13.10;80.70;;;;;;5135464;27;19915;-71
2023/03/30 04:42:48;;;;;;;;;;;13.10;80.80;;;;;;5135873;28;20005;-71
2023/03/30 04:45:15;;;;;;;;;;;13.10;80.90;;;;;;5135846;28;19919;-71
2023/03/30 04:47:41;;;;;;;;;;;13.00;81.00;;;;;;5135705;28;20360;-72
2023/03/30 04:50:06;;;;;;;;;;;13.10;81.10;;;;;;5135822;28;19915;-71
2023/03/30 04:52:32;;;;;;;;;;;13.20;81.30;;;;;;5135556;28;19924;-71
2023/03/30 04:54:58;;;;;;;;;;;13.10;81.30;;;;;;5135597;28;20322;-71
2023/03/30 04:57:24;;;;;;;;;;;12.90;81.30;;;;;;5135727;28;19916;-71
2023/03/30 04:59:49;;;;;;;;;;;13.00;81.30;;;;;;5116843;28;19915;-71
2023/03/30 05:02:15;;;;;;;;;;;13.00;81.40;;;;;;5135521;28;20384;-71
2023/03/30 05:04:40;;;;;;;;;;;13.10;81.40;;;;;;5135445;28;19981;-70
2023/03/30 05:07:06;;;;;;;;;;;13.00;81.30;;;;;;5135255;28;20006;-70
2023/03/30 05:09:32;;;;;;;;;;;13.00;81.40;;;;;;5135347;28;19915;-70
2023/03/30 05:11:58;;;;;;;;;;;13.00;81.50;;;;;;5100254;28;19915;-70
2023/03/30 05:14:23;;;;;;;;;;;13.00;81.60;;;;;;5135294;28;19915;-70
2023/03/30 05:16:50;;;;;;;;;;;12.90;81.70;;;;;;5116056;28;19916;-70
2023/03/30 05:19:16;;;;;;;;;;;12.80;81.80;;;;;;5135491;28;19922;-68
2023/03/30 05:21:41;;;;;;;;;;;12.80;82.00;;;;;;5135251;28;19915;-68
2023/03/30 05:24:07;;;;;;;;;;;12.80;82.10;;;;;;5135342;28;20013;-68
2023/03/30 05:26:32;;;;;;;;;;;12.70;82.20;;;;;;5135318;28;19915;-68
2023/03/30 05:28:58;;;;;;;;;;;12.70;82.20;;;;;;5135096;28;19915;-67
2023/03/30 05:31:24;;;;;;;;;;;12.70;82.30;;;;;;5135028;28;19923;-68
2023/03/30 05:33:51;;;;;;;;;;;12.60;82.30;;;;;;5134948;28;19915;-67
2023/03/30 05:36:17;;;;;;;;;;;12.50;82.40;;;;;;5134915;28;19994;-67
2023/03/30 05:38:42;;;;;;;;;;;12.50;82.60;;;;;;5135547;28;19922;-68
2023/03/30 05:41:08;;;;;;;;;;;12.50;82.70;;;;;;5135428;28;19916;-67
2023/03/30 05:43:33;;;;;;;;;;;12.40;82.90;;;;;;5134690;28;19923;-68
2023/03/30 05:46:01;;;;;;;;;;;12.50;83.10;;;;;;5135256;28;19915;-68
2023/03/30 05:48:27;;;;;;;;;;;12.40;83.10;;;;;;5134926;28;19998;-68
2023/03/30 05:50:52;;;;;;;;;;;12.40;83.10;;;;;;5133710;27;20010;-68
2023/03/30 05:53:18;;;;;;;;;;;12.40;83.20;;;;;;5134624;28;20379;-68
2023/03/30 05:55:45;;;;;;;;;;;12.40;83.20;;;;;;5135010;28;19915;-68
2023/03/30 05:58:11;;;;;;;;;;;12.20;83.10;;;;;;5134724;28;19954;-68
2023/03/30 06:00:36;;;;;;;;;;;12.50;83.30;;;;;;5134673;28;19938;-68
2023/03/30 06:03:03;;;;;;;;;;;12.40;83.30;;;;;;5134617;28;19915;-68
2023/03/30 06:05:29;;;;;;;;;;;12.40;83.30;;;;;;5116544;28;19919;-68
2023/03/30 06:07:55;;;;;;;;;;;12.40;83.20;;;;;;5134634;28;20486;-68
2023/03/30 06:10:21;;;;;;;;;;;12.40;83.70;;;;;;5134392;28;19961;-68
2023/03/30 06:12:46;;;;;;;;;;;12.40;83.10;;;;;;5134314;28;19923;-68
2023/03/30 06:15:12;;;;;;;;;;;12.50;83.20;;;;;;5134333;28;20295;-68
2023/03/30 06:17:37;;;;;;;;;;;12.50;83.20;;;;;;5134247;28;19923;-68
2023/03/30 06:20:08;;;;;;;;;;;12.50;83.10;;;;;;5115113;28;19923;-68
2023/03/30 06:22:34;;;;;;;;;;;12.60;83.20;;;;;;5134066;28;20273;-68
2023/03/30 06:24:59;;;;;;;;;;;12.60;83.10;;;;;;5134058;28;19925;-68
2023/03/30 06:27:25;;;;;;;;;;;12.70;83.10;;;;;;5134150;28;19938;-68
2023/03/30 06:29:51;;;;;;;;;;;12.70;83.00;;;;;;5134313;28;19920;-69
2023/03/30 06:32:17;;;;;;;;;;;12.70;83.00;;;;;;5134050;28;19915;-68
2023/03/30 06:34:42;;;;;;;;;;;12.70;83.00;;;;;;5134014;28;19957;-68
2023/03/30 06:37:08;;;;;;;;;;;12.70;83.10;;;;;;5134201;28;19959;-68
2023/03/30 06:39:36;;;;;;;;;;;12.70;83.10;;;;;;5134096;28;19967;-68
2023/03/30 06:42:03;;;;;;;;;;;12.70;83.20;;;;;;5134116;28;20408;-68
2023/03/30 06:44:28;;;;;;;;;;;12.70;83.20;;;;;;5113660;28;19920;-68
2023/03/30 06:46:53;;;;;;;;;;;12.70;83.20;;;;;;5133956;28;20394;-68
2023/03/30 06:49:19;;;;;;;;;;;12.70;83.20;;;;;;5133966;28;19923;-68
2023/03/30 06:51:45;;;;;;;;;;;12.70;83.30;;;;;;5133975;28;20330;-68
2023/03/30 06:54:11;;;;;;;;;;;12.60;83.40;;;;;;5115178;28;20296;-68
2023/03/30 06:56:37;;;;;;;;;;;12.60;83.50;;;;;;5133971;28;19918;-68
2023/03/30 06:59:04;;;;;;;;;;;12.60;83.70;;;;;;5133794;28;19915;-68
2023/03/30 07:01:29;;;;;;;;;;;12.60;83.90;;;;;;5133560;27;20018;-68
2023/03/30 07:03:55;;;;;;;;;;;12.60;83.90;;;;;;5133380;28;20024;-68
2023/03/30 07:06:21;;;;;;;;;;;12.60;83.90;;;;;;5133641;28;19916;-68
2023/03/30 07:08:47;;;;;;;;;;;12.60;84.60;;;;;;5133581;28;19921;-68
2023/03/30 07:11:13;;;;;;;;;;;12.60;83.90;;;;;;5133668;28;19924;-68
2023/03/30 07:13:39;;;;;;;;;;;12.60;83.90;;;;;;5133494;28;20006;-68
2023/03/30 07:16:04;;;;;;;;;;;12.70;84.00;;;;;;5133715;28;20373;-68
2023/03/30 07:18:30;;;;;;;;;;;12.70;84.00;;;;;;5133625;28;19915;-69
2023/03/30 07:20:56;;;;;;;;;;;12.70;84.10;;;;;;5133599;28;20373;-68
2023/03/30 07:23:22;;;;;;;;;;;12.60;83.90;;;;;;5133432;28;19915;-68
2023/03/30 07:25:48;;;;;;;;;;;12.70;83.90;;;;;;5133424;28;19915;-68
2023/03/30 07:28:14;;;;;;;;;;;12.80;84.00;;;;;;5114368;28;19922;-68
2023/03/30 07:30:39;;;;;;;;;;;12.80;84.00;;;;;;5133406;28;19919;-68
2023/03/30 07:33:05;;;;;;;;;;;12.90;84.00;;;;;;5133348;28;20365;-68
2023/03/30 07:35:31;;;;;;;;;;;13.00;83.80;;;;;;5133188;28;19915;-69
2023/03/30 07:37:56;;;;;;;;;;;13.00;83.60;;;;;;5133322;28;19919;-68
2023/03/30 07:40:22;;;;;;;;;;;13.10;83.50;;;;;;5133158;28;20014;-68
2023/03/30 07:42:49;;;;;;;;;;;13.30;83.50;;;;;;5133807;28;21420;-69
2023/03/30 07:45:15;;;;;;;;;;;13.40;83.30;;;;;;5113654;28;19965;-69
2023/03/30 07:47:40;;;;;;;;;;;13.40;82.90;;;;;;5133278;28;20364;-69
2023/03/30 07:50:07;;;;;;;;;;;13.60;82.80;;;;;;5133111;28;19964;-69
2023/03/30 07:52:33;;;;;;;;;;;13.60;82.70;;;;;;5113764;28;20281;-68
2023/03/30 07:54:58;;;;;;;;;;;13.60;82.60;;;;;;5133053;28;19922;-69
2023/03/30 07:57:24;;;;;;;;;;;13.50;82.60;;;;;;5133196;28;19985;-68
2023/03/30 07:59:49;;;;;;;;;;;13.50;82.70;;;;;;5133077;28;19938;-69
2023/03/30 08:02:15;;;;;;;;;;;13.50;82.90;;;;;;5133079;28;20372;-68
2023/03/30 08:04:42;;;;;;;;;;;13.40;83.00;;;;;;5115245;28;20349;-68
2023/03/30 08:07:08;;;;;;;;;;;13.30;83.10;;;;;;5132987;28;20454;-68
2023/03/30 08:09:34;;;;;;;;;;;13.40;83.20;;;;;;5133065;28;19915;-68
2023/03/30 08:12:00;;;;;;;;;;;13.40;83.10;;;;;;5132918;28;19916;-68
2023/03/30 08:14:26;;;;;;;;;;;13.40;83.00;;;;;;5134037;27;19922;-68
2023/03/30 08:16:53;;;;;;;;;;;13.50;83.00;;;;;;5136296;28;20334;-69
2023/03/30 08:19:19;;;;;;;;;;;13.40;82.80;;;;;;5136270;28;19915;-68
2023/03/30 08:21:46;;;;;;;;;;;13.40;82.80;;;;;;5136278;28;19919;-68
2023/03/30 08:24:11;;;;;;;;;;;13.40;82.70;;;;;;5136142;28;19926;-68
2023/03/30 08:26:37;;;;;;;;;;;13.50;82.60;;;;;;5136148;28;19911;-68
2023/03/30 08:29:03;;;;;;;;;;;13.50;82.40;;;;;;5135985;28;19951;-69
2023/03/30 08:31:31;;;;;;;;;;;13.60;82.60;;;;;;5136025;28;19915;-68
2023/03/30 08:33:57;;;;;;;;;;;13.70;82.30;;;;;;5117699;28;19916;-68
2023/03/30 08:36:23;;;;;;;;;;;13.70;81.80;;;;;;5116820;28;20250;-69
2023/03/30 08:38:49;;;;;;;;;;;13.90;81.80;;;;;;5136053;28;19922;-68
2023/03/30 08:41:34;;;;;;;;;;;13.90;81.60;;;;;;5136005;28;19915;-68
2023/03/30 08:44:06;;;;;;;;;;;13.90;81.30;;;;;;5135256;28;19920;-69
2023/03/30 08:46:32;;;;;;;;;;;14.00;81.30;;;;;;5135830;28;19916;-69
2023/03/30 08:49:00;;;;;;;;;;;14.10;81.10;;;;;;5135573;28;20475;-69
2023/03/30 08:51:27;;;;;;;;;;;14.10;81.00;;;;;;5135731;28;20006;-68
2023/03/30 08:53:55;;;;;;;;;;;14.00;81.00;;;;;;5136021;28;19965;-68
2023/03/30 08:56:26;;;;;;;;;;;14.00;81.00;;;;;;5132087;28;19915;-68
2023/03/30 08:58:58;;;;;;;;;;;14.00;81.20;;;;;;5132087;28;19922;-68
2023/03/30 09:01:29;;;;;;;;;;;13.90;81.30;;;;;;5132586;28;19915;-69
2023/03/30 09:04:07;;;;;;;;;;;13.90;81.30;;;;;;5132620;28;19919;-69
2023/03/30 09:06:48;;;;;;;;;;;13.90;81.30;;;;;;5134577;28;19915;-69
2023/03/30 09:09:16;;;;;;;;;;;13.80;81.40;;;;;;5135406;28;19979;-68
2023/03/30 09:11:42;;;;;;;;;;;13.80;81.30;;;;;;5136070;28;19916;-68
2023/03/30 09:14:14;;;;;;;;;;;13.90;81.40;;;;;;5135708;28;20326;-68
2023/03/30 09:16:54;;;;;;;;;;;13.90;81.20;;;;;;5135361;28;19915;-68
2023/03/30 09:19:26;;;;;;;;;;;14.10;81.20;;;;;;5116723;28;20397;-68
2023/03/30 09:21:52;;;;;;;;;;;13.90;80.90;;;;;;5135313;28;19954;-68
2023/03/30 09:24:23;;;;;;;;;;;13.80;80.90;;;;;;5115951;28;20341;-69
2023/03/30 09:27:08;;;;;;;;;;;13.80;81.00;;;;;;5117180;28;19958;-68
2023/03/30 09:29:38;;;;;;;;;;;13.60;81.50;;;;;;5115882;28;19923;-68
2023/03/30 09:32:11;;;;;;;;;;;13.40;82.10;;;;;;5134958;28;19924;-69
2023/03/30 09:34:45;;;;;;;;;;;13.30;82.50;;;;;;5134932;28;19915;-68
2023/03/30 09:37:15;;;;;;;;;;;13.30;82.80;;;;;;5135051;28;20044;-68
2023/03/30 09:39:40;;;;;;;;;;;13.40;82.90;;;;;;5135596;28;20010;-68
2023/03/30 09:42:26;;;;;;;;;;;13.40;82.80;;;;;;5135100;28;20518;-68
2023/03/30 09:44:54;;;;;;;;;;;13.50;82.70;;;;;;5119973;28;20067;-69
2023/03/30 09:47:28;;;;;;;;;;;13.60;82.50;;;;;;5134821;28;19938;-68
2023/03/30 09:49:55;;;;;;;;;;;13.70;82.30;;;;;;5135303;28;19916;-68
2023/03/30 09:52:22;;;;;;;;;;;13.60;82.20;;;;;;5134747;28;20353;-68
2023/03/30 09:54:48;;;;;;;;;;;13.60;82.20;;;;;;5134709;28;19919;-69
2023/03/30 09:57:23;;;;;;;;;;;13.70;82.30;;;;;;5134687;28;19915;-68
2023/03/30 09:59:49;;;;;;;;;;;13.90;81.90;;;;;;5134643;28;20325;-69
2023/03/30 10:02:17;;;;;;;;;;;14.00;81.50;;;;;;5135096;28;19935;-68
2023/03/30 10:04:56;;;;;;;;;;;14.10;81.30;;;;;;5134400;28;19926;-68
2023/03/30 10:07:23;;;;;;;;;;;14.20;81.00;;;;;;5134557;28;19915;-68
2023/03/30 10:09:49;;;;;;;;;;;14.30;80.90;;;;;;5134585;28;20388;-68
2023/03/30 10:12:15;;;;;;;;;;;14.40;80.60;;;;;;5134542;28;19915;-69
2023/03/30 10:14:40;;;;;;;;;;;14.60;80.30;;;;;;5134330;28;19922;-68
2023/03/30 10:17:06;;;;;;;;;;;14.60;79.90;;;;;;5134329;28;19951;-68
2023/03/30 10:19:33;;;;;;;;;;;14.60;79.60;;;;;;5134295;28;19915;-68
2023/03/30 10:22:03;;;;;;;;;;;14.50;79.70;;;;;;5115936;28;20310;-68
2023/03/30 10:24:31;;;;;;;;;;;14.50;79.80;;;;;;5134152;28;20361;-68
2023/03/30 10:27:04;;;;;;;;;;;14.40;79.70;;;;;;5114836;28;19916;-68
2023/03/30 10:29:30;;;;;;;;;;;14.30;79.30;;;;;;5134122;28;19915;-69
2023/03/30 10:32:01;;;;;;;;;;;14.30;79.40;;;;;;5134105;28;20329;-68
2023/03/30 10:34:41;;;;;;;;;;;14.30;79.40;;;;;;5114278;28;19922;-68
2023/03/30 10:37:15;;;;;;;;;;;14.30;79.40;;;;;;5133525;27;19998;-68
2023/03/30 10:39:43;;;;;;;;;;;14.40;79.60;;;;;;5134009;28;20351;-68
2023/03/30 10:42:13;;;;;;;;;;;14.40;79.40;;;;;;5134385;28;19921;-68
2023/03/30 10:44:43;;;;;;;;;;;14.40;79.10;;;;;;5133845;28;19919;-68
2023/03/30 10:47:16;;;;;;;;;;;14.40;78.90;;;;;;5133928;28;19922;-69
2023/03/30 10:49:48;;;;;;;;;;;14.40;78.90;;;;;;5133804;28;19964;-68
2023/03/30 10:52:27;;;;;;;;;;;14.40;78.80;;;;;;5133821;28;19920;-68
2023/03/30 10:54:56;;;;;;;;;;;14.40;78.90;;;;;;5133700;28;20296;-68
2023/03/30 10:57:27;;;;;;;;;;;14.30;79.10;;;;;;5133733;28;20763;-69
2023/03/30 11:00:13;;;;;;;;;;;14.40;79.20;;;;;;5133462;28;19923;-68
2023/03/30 11:02:45;;;;;;;;;;;14.40;78.90;;;;;;5133560;28;19924;-68
2023/03/30 11:05:15;;;;;;;;;;;14.40;78.90;;;;;;5133579;28;20014;-68
2023/03/30 11:07:45;;;;;;;;;;;14.40;79.00;;;;;;5133628;28;19992;-68
2023/03/30 11:10:19;;;;;;;;;;;14.40;78.90;;;;;;5133652;28;20368;-68
2023/03/30 11:12:48;;;;;;;;;;;14.40;78.90;;;;;;5133913;28;19915;-68
2023/03/30 11:15:17;;;;;;;;;;;14.40;79.10;;;;;;5133492;28;19915;-68
2023/03/30 11:17:48;;;;;;;;;;;14.40;79.10;;;;;;5133447;28;19916;-68
2023/03/30 11:20:26;;;;;;;;;;;14.40;79.00;;;;;;5133417;28;19922;-68
2023/03/30 11:23:03;;;;;;;;;;;14.60;79.20;;;;;;5133412;28;19938;-68
2023/03/30 11:25:32;;;;;;;;;;;14.50;79.00;;;;;;5114833;28;19920;-68
2023/03/30 11:28:00;;;;;;;;;;;14.70;78.60;;;;;;5133435;28;20257;-68
2023/03/30 11:30:29;;;;;;;;;;;14.70;78.40;;;;;;5133761;28;19955;-68
2023/03/30 11:33:00;;;;;;;;;;;14.70;78.20;;;;;;5133627;28;19998;-68
2023/03/30 11:35:31;;;;;;;;;;;14.70;78.40;;;;;;5133341;28;20333;-68
2023/03/30 11:38:10;;;;;;;;;;;14.90;78.30;;;;;;5133547;28;19919;-68
2023/03/30 11:40:45;;;;;;;;;;;15.00;78.40;;;;;;5129441;28;20277;-68
2023/03/30 11:43:13;;;;;;;;;;;15.40;78.10;;;;;;5131100;28;19915;-68
2023/03/30 11:45:42;;;;;;;;;;;15.60;77.10;;;;;;5113336;28;19919;-68
2023/03/30 11:48:16;;;;;;;;;;;15.80;76.30;;;;;;5111166;28;20014;-69
2023/03/30 11:50:56;;;;;;;;;;;15.90;76.10;;;;;;5133943;28;19915;-68
2023/03/30 11:53:28;;;;;;;;;;;16.10;75.70;;;;;;5136615;28;19916;-68
2023/03/30 11:55:59;;;;;;;;;;;16.30;75.30;;;;;;5136575;28;20265;-68
2023/03/30 11:58:31;;;;;;;;;;;16.40;75.20;;;;;;5136799;28;19958;-68
2023/03/30 12:01:16;;;;;;;;;;;16.50;74.60;;;;;;5136554;28;19946;-68
2023/03/30 12:03:43;;;;;;;;;;;16.50;74.70;;;;;;5120879;28;19915;-68
2023/03/30 12:06:28;;;;;;;;;;;16.30;74.50;;;;;;5136386;28;19916;-69
2023/03/30 12:08:59;;;;;;;;;;;16.30;74.80;;;;;;5136318;28;19916;-69
2023/03/30 12:11:31;;;;;;;;;;;16.10;74.60;;;;;;5136285;28;19915;-68
2023/03/30 12:13:57;;;;;;;;;;;16.00;74.80;;;;;;5136343;28;19916;-68
2023/03/30 12:16:26;;;;;;;;;;;15.90;75.20;;;;;;5136615;28;20380;-69
2023/03/30 12:19:04;;;;;;;;;;;15.80;75.00;;;;;;5136371;28;19915;-69
2023/03/30 12:21:32;;;;;;;;;;;15.90;75.40;;;;;;5136213;28;19915;-68
2023/03/30 12:24:12;;;;;;;;;;;15.90;75.20;;;;;;5136120;28;20437;-68
2023/03/30 12:26:38;;;;;;;;;;;15.90;75.20;;;;;;5136152;28;19954;-69
2023/03/30 12:29:12;;;;;;;;;;;15.80;75.30;;;;;;5136287;28;19951;-68
2023/03/30 12:31:50;;;;;;;;;;;15.70;75.60;;;;;;5136033;28;19994;-68
2023/03/30 12:34:15;;;;;;;;;;;15.50;76.00;;;;;;5136151;28;20364;-68
2023/03/30 12:36:45;;;;;;;;;;;15.50;76.40;;;;;;5117034;28;19922;-68
2023/03/30 12:39:20;;;;;;;;;;;15.40;76.60;;;;;;5136027;28;19954;-69
2023/03/30 12:41:47;;;;;;;;;;;15.30;77.00;;;;;;5135801;28;20006;-69
2023/03/30 12:44:19;;;;;;;;;;;15.40;77.20;;;;;;5135698;28;19928;-69
2023/03/30 12:46:57;;;;;;;;;;;15.40;76.90;;;;;;5135723;28;19919;-68
2023/03/30 12:49:42;;;;;;;;;;;15.50;76.60;;;;;;5115770;28;20037;-69
2023/03/30 12:52:12;;;;;;;;;;;15.50;76.20;;;;;;5132805;28;20006;-69
2023/03/30 12:54:51;;;;;;;;;;;15.50;76.00;;;;;;5132619;28;19971;-69
2023/03/30 12:57:26;;;;;;;;;;;15.70;75.50;;;;;;5134985;28;19915;-69
2023/03/30 13:00:07;;;;;;;;;;;15.60;75.40;;;;;;5135121;27;19939;-69
2023/03/30 13:02:53;;;;;;;;;;;15.70;75.20;;;;;;5136047;28;19912;-69
2023/03/30 13:05:31;;;;;;;;;;;15.90;74.90;;;;;;5135455;28;19919;-69
2023/03/30 13:08:01;;;;;;;;;;;15.90;74.20;;;;;;5135490;28;20432;-69
2023/03/30 13:10:37;;;;;;;;;;;16.00;73.70;;;;;;5135457;28;19921;-69
2023/03/30 13:13:03;;;;;;;;;;;16.10;73.70;;;;;;5135326;28;20799;-69
2023/03/30 13:15:42;;;;;;;;;;;16.00;73.30;;;;;;5135424;28;19916;-69
2023/03/30 13:18:27;;;;;;;;;;;16.10;73.20;;;;;;5135320;28;19961;-69
2023/03/30 13:21:04;;;;;;;;;;;16.20;73.10;;;;;;5119264;28;20417;-69
2023/03/30 13:23:32;;;;;;;;;;;16.20;72.60;;;;;;5114251;28;19916;-69
2023/03/30 13:26:02;;;;;;;;;;;16.20;72.40;;;;;;5135206;28;19915;-68
2023/03/30 13:28:43;;;;;;;;;;;16.20;72.20;;;;;;5131889;28;20014;-69
2023/03/30 13:31:20;;;;;;;;;;;15.90;72.50;;;;;;5134426;28;20014;-69
2023/03/30 13:33:48;;;;;;;;;;;15.80;72.90;;;;;;5135587;28;19971;-68
2023/03/30 13:36:17;;;;;;;;;;;15.60;73.10;;;;;;5135087;28;19915;-69
2023/03/30 13:38:54;;;;;;;;;;;15.50;73.10;;;;;;5135008;28;19998;-69
2023/03/30 13:41:29;;;;;;;;;;;15.50;73.70;;;;;;5135093;28;19919;-68
2023/03/30 13:44:01;;;;;;;;;;;15.50;74.00;;;;;;5134756;28;19919;-69
2023/03/30 13:46:32;;;;;;;;;;;15.50;73.80;;;;;;5134752;28;20364;-68
2023/03/30 13:49:03;;;;;;;;;;;15.60;73.50;;;;;;5135031;28;19922;-68
2023/03/30 13:51:29;;;;;;;;;;;15.70;73.30;;;;;;5134646;28;19964;-69
2023/03/30 13:53:57;;;;;;;;;;;15.90;73.30;;;;;;5134596;28;19924;-68
2023/03/30 13:56:25;;;;;;;;;;;15.80;73.20;;;;;;5134869;28;19939;-68
2023/03/30 13:58:56;;;;;;;;;;;15.90;73.40;;;;;;5134638;28;19922;-69
2023/03/30 14:01:22;;;;;;;;;;;16.00;73.50;;;;;;5134456;28;20006;-69
2023/03/30 14:03:49;;;;;;;;;;;16.20;73.30;;;;;;5134565;28;19924;-69
2023/03/30 14:06:17;;;;;;;;;;;16.40;72.90;;;;;;5134689;28;19922;-69
2023/03/30 14:08:45;;;;;;;;;;;16.30;72.80;;;;;;5134437;28;20365;-68
2023/03/30 14:11:14;;;;;;;;;;;16.40;72.70;;;;;;5133980;27;20460;-69
2023/03/30 14:13:40;;;;;;;;;;;16.30;72.80;;;;;;5133946;28;19916;-69
2023/03/30 14:16:06;;;;;;;;;;;16.30;72.90;;;;;;5134472;28;19941;-68
2023/03/30 14:18:31;;;;;;;;;;;16.20;72.90;;;;;;5134770;28;20364;-68
2023/03/30 14:21:00;;;;;;;;;;;16.10;72.90;;;;;;5134111;28;19925;-69
2023/03/30 14:23:30;;;;;;;;;;;16.00;72.90;;;;;;5115820;28;19976;-68
2023/03/30 14:25:57;;;;;;;;;;;16.00;73.10;;;;;;5134128;28;19924;-68